Time;durP1;ratioP1;P1;durP2;ratioP2;P2;SDS_P1;SDS_P2;PMS_P1;PMS_P2;Temp;Humidity;BMP_temperature;BMP_pressure;BME280_temperature;BME280_humidity;BME280_pressure;Samples;Min_cycle;Max_cycle;Signal;HPM_P1;HPM_P2
2022/03/20 00:00:14;;;;;;;9.40;5.93;;;4.80;99.90;;;;;;6178237;23;20216;-32
2022/03/20 00:02:41;;;;;;;13.67;6.37;;;4.70;99.90;;;;;;6205524;23;20032;-35
2022/03/20 00:05:08;;;;;;;11.17;6.00;;;4.70;99.90;;;;;;6205866;23;20028;-35
2022/03/20 00:07:34;;;;;;;10.30;5.73;;;4.70;99.90;;;;;;6183419;23;20456;-36
2022/03/20 00:10:05;;;;;;;10.37;5.47;;;4.60;99.90;;;;;;6205869;23;20017;-34
2022/03/20 00:12:31;;;;;;;12.07;6.13;;;4.60;99.90;;;;;;6203599;23;20024;-35
2022/03/20 00:14:57;;;;;;;8.63;5.70;;;4.60;99.90;;;;;;6205680;23;20337;-35
2022/03/20 00:17:22;;;;;;;9.23;5.07;;;4.50;99.90;;;;;;6185519;23;20096;-35
2022/03/20 00:19:48;;;;;;;10.40;5.83;;;4.50;99.90;;;;;;6206073;23;20021;-35
2022/03/20 00:22:15;;;;;;;8.97;6.00;;;4.40;99.90;;;;;;6205601;23;20044;-34
2022/03/20 00:24:42;;;;;;;9.23;5.37;;;4.30;99.90;;;;;;6205479;23;20024;-34
2022/03/20 00:27:10;;;;;;;10.10;5.27;;;4.30;99.90;;;;;;6186115;23;20016;-34
2022/03/20 00:29:36;;;;;;;12.60;5.87;;;4.30;99.90;;;;;;6203286;23;20067;-35
2022/03/20 00:32:03;;;;;;;9.00;6.00;;;4.20;99.90;;;;;;6205844;23;20017;-34
2022/03/20 00:34:29;;;;;;;11.20;6.20;;;4.20;99.90;;;;;;6205094;23;20024;-36
2022/03/20 00:36:55;;;;;;;12.37;6.30;;;4.10;99.90;;;;;;6185607;23;20020;-35
2022/03/20 00:39:20;;;;;;;11.33;6.43;;;4.10;99.90;;;;;;6206337;23;20024;-35
2022/03/20 00:41:46;;;;;;;9.93;5.77;;;4.00;99.90;;;;;;6208285;23;20017;-35
2022/03/20 00:44:12;;;;;;;11.40;6.07;;;4.00;99.90;;;;;;6207077;23;20091;-34
2022/03/20 00:46:38;;;;;;;10.33;6.00;;;4.00;99.90;;;;;;6190447;23;20028;-31
2022/03/20 00:49:05;;;;;;;10.50;5.63;;;3.90;99.90;;;;;;6202328;23;20072;-32
2022/03/20 00:51:31;;;;;;;13.47;6.03;;;3.80;99.90;;;;;;6205508;23;20052;-35
2022/03/20 00:53:56;;;;;;;12.27;6.57;;;3.80;99.90;;;;;;6206542;23;20025;-32
2022/03/20 00:56:22;;;;;;;10.87;6.37;;;3.80;99.90;;;;;;6191154;23;20017;-35
2022/03/20 00:58:48;;;;;;;11.63;5.70;;;3.80;99.90;;;;;;6203260;23;20032;-36
2022/03/20 01:01:14;;;;;;;11.93;6.07;;;3.70;99.90;;;;;;6206933;23;20060;-33
2022/03/20 01:03:41;;;;;;;13.77;6.10;;;3.70;99.90;;;;;;6204663;23;20020;-35
2022/03/20 01:06:07;;;;;;;11.20;6.03;;;3.70;99.90;;;;;;6203113;23;20092;-37
2022/03/20 01:08:34;;;;;;;13.30;6.30;;;3.70;99.90;;;;;;6191060;23;20021;-34
2022/03/20 01:11:01;;;;;;;12.50;6.73;;;3.60;99.90;;;;;;6207094;23;20096;-34
2022/03/20 01:13:28;;;;;;;12.90;6.27;;;3.60;99.90;;;;;;6206371;23;20028;-35
2022/03/20 01:15:55;;;;;;;11.83;6.43;;;3.60;99.90;;;;;;6207172;23;20388;-35
2022/03/20 01:18:20;;;;;;;12.97;6.90;;;3.60;99.90;;;;;;6187349;23;20448;-32
2022/03/20 01:20:46;;;;;;;15.67;6.80;;;3.60;99.90;;;;;;6208019;23;20025;-35
2022/03/20 01:23:12;;;;;;;12.70;5.93;;;3.60;99.90;;;;;;6204160;23;20021;-33
2022/03/20 01:25:39;;;;;;;13.93;6.80;;;3.60;99.90;;;;;;6207020;23;20032;-35
2022/03/20 01:28:04;;;;;;;14.17;6.70;;;3.70;99.90;;;;;;6187141;23;20460;-33
2022/03/20 01:30:30;;;;;;;15.20;6.90;;;3.50;99.90;;;;;;6205376;23;20386;-33
2022/03/20 01:32:56;;;;;;;11.27;6.30;;;3.50;99.90;;;;;;6205733;23;20025;-34
2022/03/20 01:35:22;;;;;;;16.73;7.00;;;3.50;99.90;;;;;;6207058;23;20020;-32
2022/03/20 01:37:47;;;;;;;12.10;6.17;;;3.50;99.90;;;;;;6160955;23;20024;-36
2022/03/20 01:40:13;;;;;;;12.37;6.90;;;3.50;99.90;;;;;;6206801;23;20028;-35
2022/03/20 01:42:39;;;;;;;11.60;6.70;;;3.40;99.90;;;;;;6206486;23;20027;-34
2022/03/20 01:45:16;;;;;;;16.37;7.40;;;3.40;99.90;;;;;;6206295;23;20048;-34
2022/03/20 01:47:43;;;;;;;17.43;7.33;;;3.40;99.90;;;;;;6185583;23;20019;-35
2022/03/20 01:50:09;;;;;;;13.23;6.87;;;3.40;99.90;;;;;;6206096;23;20063;-35
2022/03/20 01:52:34;;;;;;;10.73;6.47;;;3.30;99.90;;;;;;6206338;23;20044;-33
2022/03/20 01:55:01;;;;;;;12.77;7.13;;;3.30;99.90;;;;;;6205819;23;20037;-32
2022/03/20 01:57:31;;;;;;;15.03;7.07;;;3.30;99.90;;;;;;6187264;23;20472;-35
2022/03/20 01:59:56;;;;;;;13.17;7.37;;;3.30;99.90;;;;;;6206749;23;20055;-32
2022/03/20 02:02:22;;;;;;;12.73;7.03;;;3.30;99.90;;;;;;6206425;23;20079;-36
2022/03/20 02:04:48;;;;;;;13.00;7.83;;;3.20;99.90;;;;;;6207126;23;20473;-34
2022/03/20 02:07:13;;;;;;;15.60;7.70;;;3.20;99.90;;;;;;6184301;23;20511;-33
2022/03/20 02:09:41;;;;;;;15.53;7.97;;;3.20;99.90;;;;;;6206691;23;20023;-34
2022/03/20 02:12:09;;;;;;;17.60;7.83;;;3.20;99.90;;;;;;6203730;23;20418;-35
2022/03/20 02:14:35;;;;;;;15.10;8.47;;;3.20;99.90;;;;;;6206571;23;20024;-34
2022/03/20 02:17:04;;;;;;;18.50;8.70;;;3.30;99.90;;;;;;6187875;23;20013;-32
2022/03/20 02:19:30;;;;;;;15.53;8.27;;;3.20;99.90;;;;;;6205294;23;20052;-36
2022/03/20 02:21:56;;;;;;;15.97;7.97;;;3.10;99.90;;;;;;6206655;23;20024;-35
2022/03/20 02:24:44;;;;;;;15.53;8.00;;;3.10;99.90;;;;;;6205637;23;20028;-34
2022/03/20 02:27:16;;;;;;;17.77;8.80;;;3.10;99.90;;;;;;6186557;23;20021;-34
2022/03/20 02:29:47;;;;;;;16.30;8.40;;;3.10;99.90;;;;;;6206102;23;20024;-35
2022/03/20 02:32:16;;;;;;;15.98;7.88;;;3.10;99.90;;;;;;6205752;23;20127;-35
2022/03/20 02:34:47;;;;;;;13.20;8.47;;;3.10;99.90;;;;;;6206647;23;20074;-33
2022/03/20 02:37:14;;;;;;;14.17;9.03;;;3.00;99.90;;;;;;6187681;23;20023;-32
2022/03/20 02:39:39;;;;;;;13.77;9.40;;;3.00;99.90;;;;;;6206213;23;20526;-34
2022/03/20 02:42:07;;;;;;;17.60;9.70;;;3.00;99.90;;;;;;6205265;23;20020;-35
2022/03/20 02:44:49;;;;;;;19.67;9.43;;;2.90;99.90;;;;;;6206456;23;20013;-34
2022/03/20 02:47:19;;;;;;;15.77;9.13;;;2.90;99.90;;;;;;6186952;23;20067;-36
2022/03/20 02:49:46;;;;;;;17.70;10.25;;;2.90;99.90;;;;;;6206631;23;20441;-34
2022/03/20 02:52:12;;;;;;;15.00;9.30;;;2.80;99.90;;;;;;6203360;23;20127;-34
2022/03/20 02:54:38;;;;;;;15.17;9.53;;;2.80;99.90;;;;;;6206311;23;20027;-36
2022/03/20 02:57:08;;;;;;;22.93;10.43;;;2.80;99.90;;;;;;6187422;23;20020;-35
2022/03/20 02:59:34;;;;;;;17.30;10.30;;;2.80;99.90;;;;;;6204186;23;20472;-33
2022/03/20 03:02:01;;;;;;;20.13;10.37;;;2.70;99.90;;;;;;6204129;23;20020;-35
2022/03/20 03:04:27;;;;;;;21.57;10.30;;;2.70;99.90;;;;;;6178410;23;20021;-34
2022/03/20 03:06:52;;;;;;;20.43;11.80;;;2.70;99.90;;;;;;6187607;23;20017;-35
2022/03/20 03:12:04;;;;;;;20.67;11.30;;;2.60;99.90;;;;;;6206215;23;20028;-35
2022/03/20 03:17:14;;;;;;;19.97;11.27;;;2.70;99.90;;;;;;6186742;23;20356;-34
2022/03/20 03:19:54;;;;;;;21.10;11.70;;;2.60;99.90;;;;;;6205953;23;20063;-35
2022/03/20 03:22:20;;;;;;;20.77;12.20;;;2.50;99.90;;;;;;6204963;23;20021;-35
2022/03/20 03:24:46;;;;;;;22.60;12.13;;;2.50;99.90;;;;;;6206501;23;20039;-34
2022/03/20 03:27:11;;;;;;;20.20;12.33;;;2.50;99.90;;;;;;6184506;23;20016;-34
2022/03/20 03:29:37;;;;;;;23.40;12.93;;;2.50;99.90;;;;;;6204031;23;20091;-32
2022/03/20 03:32:05;;;;;;;21.20;11.83;;;2.60;99.90;;;;;;6205672;23;20032;-34
2022/03/20 03:37:18;;;;;;;21.67;13.20;;;2.50;99.90;;;;;;6187650;23;20613;-36
2022/03/20 03:39:44;;;;;;;21.40;12.67;;;2.60;99.90;;;;;;6203972;23;20024;-33
2022/03/20 03:42:10;;;;;;;22.17;13.43;;;2.40;99.90;;;;;;6204848;23;20024;-36
2022/03/20 03:44:36;;;;;;;21.47;12.97;;;2.40;99.90;;;;;;6206418;23;20511;-35
2022/03/20 03:47:03;;;;;;;23.87;14.30;;;2.40;99.90;;;;;;6186867;23;20016;-35
2022/03/20 03:49:28;;;;;;;20.77;12.97;;;2.30;99.90;;;;;;6204670;23;20216;-35
2022/03/20 03:51:55;;;;;;;22.07;13.27;;;2.30;99.90;;;;;;6203994;23;20488;-34
2022/03/20 03:54:21;;;;;;;24.23;14.60;;;2.30;99.90;;;;;;6204974;23;20028;-32
2022/03/20 03:56:46;;;;;;;22.90;13.70;;;2.30;99.90;;;;;;6187714;23;20082;-33
2022/03/20 03:59:12;;;;;;;23.73;13.73;;;2.40;99.90;;;;;;6202960;23;20025;-35
2022/03/20 04:01:38;;;;;;;24.10;13.97;;;2.30;99.90;;;;;;6203998;23;20341;-36
2022/03/20 04:04:04;;;;;;;24.33;13.80;;;2.30;99.90;;;;;;6202564;23;20099;-36
2022/03/20 04:06:30;;;;;;;23.50;13.93;;;2.30;99.90;;;;;;6190918;23;20012;-35
2022/03/20 04:08:55;;;;;;;23.13;14.00;;;2.30;99.90;;;;;;6201166;23;20063;-34
2022/03/20 04:11:21;;;;;;;25.70;14.33;;;2.20;99.90;;;;;;6206947;23;20021;-36
2022/03/20 04:13:47;;;;;;;25.23;15.27;;;2.20;99.90;;;;;;6207073;23;20016;-35
2022/03/20 04:16:12;;;;;;;21.07;14.40;;;2.20;99.90;;;;;;6196961;23;20056;-34
2022/03/20 04:18:38;;;;;;;20.10;13.57;;;2.20;99.90;;;;;;6199165;23;20083;-34
2022/03/20 04:21:04;;;;;;;26.93;15.20;;;2.20;99.90;;;;;;6207719;23;20025;-35
2022/03/20 04:23:45;;;;;;;23.33;13.53;;;2.20;99.90;;;;;;6206984;23;20066;-35
2022/03/20 04:26:24;;;;;;;25.35;14.40;;;2.20;99.90;;;;;;6197628;23;20063;-34
2022/03/20 04:28:51;;;;;;;23.37;14.13;;;2.20;99.90;;;;;;6203030;23;20033;-35
2022/03/20 04:31:19;;;;;;;24.30;14.93;;;2.10;99.90;;;;;;6205929;23;20079;-35
2022/03/20 04:33:48;;;;;;;22.57;14.70;;;2.10;99.90;;;;;;6207047;23;20027;-34
2022/03/20 04:36:14;;;;;;;23.63;15.57;;;2.10;99.90;;;;;;6197780;23;20035;-33
2022/03/20 04:38:40;;;;;;;23.40;14.87;;;2.10;99.90;;;;;;6197924;23;20324;-35
2022/03/20 04:41:06;;;;;;;26.97;15.33;;;2.00;99.90;;;;;;6207473;23;20433;-36
2022/03/20 04:43:32;;;;;;;22.77;13.63;;;2.00;99.90;;;;;;6205299;23;20344;-38
2022/03/20 04:45:58;;;;;;;24.57;14.33;;;2.00;99.90;;;;;;6205185;23;20348;-33
2022/03/20 04:59:21;;;;;;;26.97;16.17;;;1.90;99.90;;;;;;6205740;23;20123;-37
2022/03/20 05:01:46;;;;;;;21.33;14.67;;;1.90;99.90;;;;;;6206774;23;20472;-34
2022/03/20 05:04:13;;;;;;;27.50;15.37;;;1.80;99.90;;;;;;6205972;23;20360;-34
2022/03/20 05:06:39;;;;;;;24.73;14.90;;;1.80;99.90;;;;;;6190152;23;20028;-36
2022/03/20 05:14:34;;;;;;;26.27;16.63;;;1.80;99.90;;;;;;6205334;23;20074;-37
2022/03/20 05:17:04;;;;;;;32.87;16.30;;;1.70;99.90;;;;;;6187756;23;20056;-34
2022/03/20 05:19:29;;;;;;;23.80;16.00;;;1.70;99.90;;;;;;6205596;23;20020;-36
2022/03/20 05:21:56;;;;;;;27.17;16.57;;;1.70;99.90;;;;;;6206984;23;20027;-36
2022/03/20 05:24:21;;;;;;;27.53;16.60;;;1.70;99.90;;;;;;6204617;23;20028;-36
2022/03/20 05:26:47;;;;;;;30.77;16.70;;;1.70;99.90;;;;;;6188714;23;20364;-36
2022/03/20 05:29:12;;;;;;;31.23;17.00;;;1.70;99.90;;;;;;6206036;23;20051;-36
2022/03/20 05:31:38;;;;;;;24.77;16.70;;;1.70;99.90;;;;;;6206500;23;20028;-35
2022/03/20 05:34:04;;;;;;;31.90;18.20;;;1.70;99.90;;;;;;6206310;23;20079;-34
2022/03/20 05:36:30;;;;;;;25.17;15.93;;;1.70;99.90;;;;;;6192347;23;20149;-35
2022/03/20 05:38:56;;;;;;;28.37;17.53;;;1.60;99.90;;;;;;6201275;23;20095;-36
2022/03/20 05:44:06;;;;;;;29.20;17.67;;;1.60;99.90;;;;;;6205860;23;20610;-34
2022/03/20 05:46:31;;;;;;;25.10;17.03;;;1.60;99.90;;;;;;6188293;23;20048;-36
2022/03/20 05:48:58;;;;;;;29.70;17.67;;;1.60;99.90;;;;;;6203462;23;20047;-33
2022/03/20 05:51:24;;;;;;;32.37;18.17;;;1.60;99.90;;;;;;6206811;23;20468;-35
2022/03/20 05:53:49;;;;;;;29.47;18.10;;;1.60;99.90;;;;;;6204288;23;20071;-36
2022/03/20 05:58:59;;;;;;;28.20;18.20;;;1.60;99.90;;;;;;6203950;23;20625;-36
2022/03/20 06:01:26;;;;;;;33.00;18.00;;;1.60;99.90;;;;;;6206794;23;20021;-35
2022/03/20 06:03:52;;;;;;;29.33;18.23;;;1.60;99.90;;;;;;6205720;23;20032;-36
2022/03/20 06:06:18;;;;;;;30.40;18.20;;;1.70;99.90;;;;;;6191432;23;20055;-37
2022/03/20 06:08:44;;;;;;;36.23;18.90;;;1.70;99.90;;;;;;6200471;23;20360;-36
2022/03/20 06:11:09;;;;;;;30.57;18.70;;;1.70;99.90;;;;;;6204705;23;20540;-36
2022/03/20 06:13:35;;;;;;;27.00;18.20;;;1.70;99.90;;;;;;6203868;23;20462;-36
2022/03/20 06:16:01;;;;;;;30.07;18.67;;;1.70;99.90;;;;;;6206114;23;20337;-36
2022/03/20 06:18:27;;;;;;;29.40;18.73;;;1.70;99.90;;;;;;6186577;23;20080;-35
2022/03/20 06:20:53;;;;;;;26.80;18.07;;;1.80;99.90;;;;;;6206325;23;20031;-37
2022/03/20 06:23:19;;;;;;;29.03;18.83;;;1.80;99.90;;;;;;6203915;23;20033;-36
2022/03/20 06:25:45;;;;;;;26.30;17.30;;;1.80;99.90;;;;;;6204920;23;20440;-34
2022/03/20 06:28:11;;;;;;;28.60;18.33;;;1.80;99.90;;;;;;6183915;23;20396;-35
2022/03/20 06:30:37;;;;;;;31.37;19.97;;;1.90;99.90;;;;;;6203848;23;20024;-36
2022/03/20 06:33:03;;;;;;;30.43;19.33;;;1.90;99.90;;;;;;6202249;23;20471;-36
2022/03/20 06:35:28;;;;;;;30.37;19.73;;;2.00;99.90;;;;;;6203646;23;20226;-36
2022/03/20 06:37:54;;;;;;;36.33;19.53;;;2.00;99.90;;;;;;6187498;23;20016;-37
2022/03/20 06:40:21;;;;;;;28.90;19.73;;;2.10;99.90;;;;;;6205253;23;20095;-36
2022/03/20 06:42:47;;;;;;;27.47;18.03;;;2.10;99.90;;;;;;6204299;23;20027;-36
2022/03/20 06:45:14;;;;;;;34.10;19.53;;;2.20;99.90;;;;;;6203625;23;20013;-35
2022/03/20 06:47:42;;;;;;;33.00;18.93;;;2.20;99.90;;;;;;6185792;23;20020;-36
2022/03/20 06:50:09;;;;;;;33.53;19.90;;;2.30;99.90;;;;;;6204952;23;20400;-34
2022/03/20 06:52:38;;;;;;;30.17;18.60;;;2.30;99.90;;;;;;6203802;23;20085;-36
2022/03/20 06:55:05;;;;;;;28.80;19.30;;;2.40;99.90;;;;;;6205743;23;20048;-36
2022/03/20 06:57:31;;;;;;;33.00;19.73;;;2.40;99.90;;;;;;6186289;23;20024;-34
2022/03/20 06:59:59;;;;;;;30.23;18.37;;;2.50;99.90;;;;;;6206326;23;20075;-36
2022/03/20 07:02:25;;;;;;;28.13;19.00;;;2.50;99.90;;;;;;6205162;23;20024;-36
2022/03/20 07:04:51;;;;;;;30.97;19.43;;;2.50;99.90;;;;;;6204396;23;20030;-35
2022/03/20 07:07:21;;;;;;;30.63;19.47;;;2.60;99.90;;;;;;6185375;23;20024;-36
2022/03/20 07:09:47;;;;;;;31.57;18.87;;;2.60;99.90;;;;;;6206153;23;20060;-35
2022/03/20 07:12:13;;;;;;;31.23;19.23;;;2.70;99.90;;;;;;6203764;23;20318;-35
2022/03/20 07:14:40;;;;;;;29.93;19.50;;;2.70;99.90;;;;;;6205907;23;20024;-36
2022/03/20 07:17:09;;;;;;;27.83;18.63;;;2.80;99.90;;;;;;6186114;23;20550;-36
2022/03/20 07:19:38;;;;;;;30.33;19.43;;;2.80;99.90;;;;;;6204711;23;20021;-35
2022/03/20 07:22:06;;;;;;;28.73;18.87;;;2.90;99.90;;;;;;6202423;23;20496;-37
2022/03/20 07:24:36;;;;;;;30.87;18.47;;;2.90;99.90;;;;;;6205865;23;20285;-36
2022/03/20 07:29:49;;;;;;;28.77;18.60;;;2.90;99.90;;;;;;6205118;23;20658;-34
2022/03/20 07:32:15;;;;;;;29.47;19.00;;;3.00;99.90;;;;;;6204860;23;20013;-35
2022/03/20 07:34:44;;;;;;;31.00;19.47;;;3.00;99.90;;;;;;6205862;23;20021;-35
2022/03/20 07:37:17;;;;;;;29.00;18.13;;;3.10;99.90;;;;;;6186748;23;20112;-34
2022/03/20 07:39:47;;;;;;;28.40;18.63;;;3.10;99.90;;;;;;6205388;23;20095;-34
2022/03/20 07:42:14;;;;;;;30.50;19.30;;;3.20;99.90;;;;;;6203407;23;20083;-36
2022/03/20 07:44:40;;;;;;;31.83;18.87;;;3.20;99.90;;;;;;6178913;23;20026;-35
2022/03/20 07:47:08;;;;;;;29.10;18.93;;;3.30;99.90;;;;;;6185948;23;20013;-36
2022/03/20 07:49:36;;;;;;;28.47;18.63;;;3.30;99.90;;;;;;6205801;23;20384;-36
2022/03/20 07:52:05;;;;;;;29.93;18.47;;;3.40;99.90;;;;;;6203220;23;20025;-35
2022/03/20 07:54:32;;;;;;;32.07;18.90;;;3.40;99.90;;;;;;6205043;23;20048;-36
2022/03/20 07:56:58;;;;;;;30.57;18.87;;;3.50;99.90;;;;;;6187292;23;20056;-37
2022/03/20 07:59:23;;;;;;;29.67;18.80;;;3.50;99.90;;;;;;6204930;23;20040;-36
2022/03/20 08:01:49;;;;;;;30.20;18.80;;;3.50;99.90;;;;;;6205626;23;20096;-34
2022/03/20 08:04:16;;;;;;;29.43;18.60;;;3.60;99.90;;;;;;6178687;23;20029;-36
2022/03/20 08:06:43;;;;;;;29.63;19.47;;;3.60;99.90;;;;;;6188505;23;20445;-34
2022/03/20 08:09:08;;;;;;;28.97;18.53;;;3.70;99.90;;;;;;6201562;23;20044;-36
2022/03/20 08:11:34;;;;;;;29.97;18.37;;;3.70;99.90;;;;;;6205490;23;20188;-35
2022/03/20 08:14:00;;;;;;;34.03;18.80;;;3.80;99.90;;;;;;6203091;23;20134;-36
2022/03/20 08:16:26;;;;;;;32.90;19.83;;;3.80;99.90;;;;;;6190521;23;20370;-36
2022/03/20 08:18:56;;;;;;;31.10;18.43;;;3.90;99.90;;;;;;6201507;23;20012;-35
2022/03/20 08:21:22;;;;;;;30.20;18.60;;;3.90;99.90;;;;;;6205590;23;20035;-34
2022/03/20 08:23:48;;;;;;;27.13;18.27;;;4.00;99.90;;;;;;6177928;23;20055;-35
2022/03/20 08:26:14;;;;;;;29.67;18.33;;;4.10;99.90;;;;;;6194324;23;20024;-36
2022/03/20 08:28:48;;;;;;;29.73;19.53;;;4.10;99.90;;;;;;6197170;23;20348;-36
2022/03/20 08:31:14;;;;;;;31.00;18.87;;;4.10;99.90;;;;;;6205699;23;20021;-36
2022/03/20 08:33:43;;;;;;;30.00;18.53;;;4.20;99.90;;;;;;6202636;23;20028;-37
2022/03/20 08:36:09;;;;;;;28.00;19.17;;;4.20;99.90;;;;;;6198375;23;20103;-36
2022/03/20 08:38:37;;;;;;;29.07;18.37;;;4.30;99.90;;;;;;6192430;23;20052;-36
2022/03/20 08:41:03;;;;;;;28.23;18.47;;;4.40;99.90;;;;;;6203361;23;20020;-36
2022/03/20 08:43:29;;;;;;;27.83;18.23;;;4.40;99.90;;;;;;6203151;23;20025;-36
2022/03/20 08:45:54;;;;;;;30.93;19.50;;;4.40;99.90;;;;;;6205706;23;20073;-35
2022/03/20 08:48:20;;;;;;;29.80;19.33;;;4.50;99.90;;;;;;6183830;23;20048;-33
2022/03/20 08:50:48;;;;;;;33.47;19.97;;;4.50;99.90;;;;;;6206012;23;20016;-36
2022/03/20 08:53:18;;;;;;;30.70;19.60;;;4.60;99.90;;;;;;6204637;23;20079;-37
2022/03/20 08:55:45;;;;;;;31.80;19.73;;;4.60;99.90;;;;;;6203888;23;20021;-36
2022/03/20 08:58:11;;;;;;;28.83;19.43;;;4.70;99.90;;;;;;6186483;23;20025;-36
2022/03/20 09:00:37;;;;;;;32.00;20.10;;;4.70;99.90;;;;;;6207495;23;20020;-36
2022/03/20 09:03:03;;;;;;;30.93;20.33;;;4.80;99.90;;;;;;6205955;23;20028;-39
2022/03/20 09:05:29;;;;;;;31.47;20.00;;;4.80;99.90;;;;;;6203974;23;20016;-35
2022/03/20 09:07:57;;;;;;;35.33;21.10;;;4.90;99.90;;;;;;6186172;23;20012;-37
2022/03/20 09:10:24;;;;;;;29.70;19.43;;;5.00;99.90;;;;;;6205435;23;20024;-35
2022/03/20 09:12:50;;;;;;;36.10;20.60;;;5.00;99.90;;;;;;6205816;23;20021;-34
2022/03/20 09:15:17;;;;;;;29.57;19.97;;;5.20;99.90;;;;;;6179813;23;20027;-36
2022/03/20 09:20:30;;;;;;;33.70;21.03;;;5.20;99.90;;;;;;6202102;23;20021;-36
2022/03/20 09:22:56;;;;;;;31.30;20.37;;;5.30;99.90;;;;;;6201081;23;20025;-36
2022/03/20 09:25:22;;;;;;;31.13;20.60;;;5.30;99.90;;;;;;6199225;23;20087;-35
2022/03/20 09:27:48;;;;;;;29.33;20.30;;;5.40;99.90;;;;;;6179548;23;20028;-34
2022/03/20 09:30:18;;;;;;;32.53;20.63;;;5.50;99.90;;;;;;6201239;23;20028;-34
2022/03/20 09:32:43;;;;;;;33.90;21.47;;;5.50;99.90;;;;;;6202515;23;20174;-35
2022/03/20 09:35:09;;;;;;;35.13;21.67;;;5.60;99.90;;;;;;6203703;23;20289;-34
2022/03/20 09:37:35;;;;;;;30.40;21.20;;;5.70;99.90;;;;;;6185550;23;20074;-35
2022/03/20 09:40:03;;;;;;;33.30;21.33;;;5.70;99.90;;;;;;6202916;23;20024;-36
2022/03/20 09:42:28;;;;;;;31.20;20.43;;;5.80;99.90;;;;;;6200955;23;20066;-37
2022/03/20 09:44:55;;;;;;;31.37;20.53;;;5.90;99.90;;;;;;6201267;23;20091;-34
2022/03/20 09:47:23;;;;;;;31.77;21.23;;;6.00;99.90;;;;;;6181855;23;20091;-37
2022/03/20 09:49:49;;;;;;;33.80;22.00;;;6.10;99.90;;;;;;6202438;23;20431;-35
2022/03/20 09:52:19;;;;;;;33.27;21.63;;;6.10;99.90;;;;;;6202165;23;20521;-36
2022/03/20 09:54:44;;;;;;;35.90;21.13;;;6.20;99.90;;;;;;6204126;23;20079;-33
2022/03/20 09:57:11;;;;;;;32.17;21.43;;;6.30;99.90;;;;;;6184128;23;20020;-36
2022/03/20 09:59:39;;;;;;;32.87;21.77;;;6.30;99.90;;;;;;6203382;23;20408;-34
2022/03/20 10:02:09;;;;;;;30.43;21.30;;;6.40;99.90;;;;;;6202218;23;20035;-36
2022/03/20 10:04:57;;;;;;;32.53;21.93;;;6.50;99.90;;;;;;6203214;23;20095;-35
2022/03/20 10:07:33;;;;;;;35.83;22.30;;;6.60;99.90;;;;;;6179081;23;20103;-36
2022/03/20 10:10:07;;;;;;;36.70;22.17;;;6.70;99.90;;;;;;6198243;23;20514;-33
2022/03/20 10:12:34;;;;;;;34.00;21.73;;;6.70;99.90;;;;;;6201809;23;20029;-35
2022/03/20 10:14:59;;;;;;;33.40;22.53;;;6.80;99.90;;;;;;6201588;23;20091;-36
2022/03/20 10:17:25;;;;;;;34.80;22.30;;;6.90;99.90;;;;;;6182129;23;20100;-36
2022/03/20 10:19:51;;;;;;;37.07;22.83;;;7.00;99.90;;;;;;6202033;23;20008;-34
2022/03/20 10:22:17;;;;;;;33.40;22.33;;;7.10;99.90;;;;;;6198305;23;20101;-35
2022/03/20 10:24:51;;;;;;;33.60;21.97;;;7.20;99.90;;;;;;6201864;23;20040;-36
2022/03/20 10:27:17;;;;;;;34.43;22.63;;;7.30;99.90;;;;;;6181034;23;20468;-36
2022/03/20 10:29:54;;;;;;;33.50;22.70;;;7.40;99.90;;;;;;6201525;23;20031;-35
2022/03/20 10:32:21;;;;;;;31.80;22.53;;;7.50;99.90;;;;;;6200416;23;20387;-35
2022/03/20 10:34:51;;;;;;;37.27;22.43;;;7.50;99.90;;;;;;6202459;23;20540;-35
2022/03/20 10:37:18;;;;;;;36.60;22.17;;;7.60;99.90;;;;;;6182187;23;20023;-34
2022/03/20 10:39:45;;;;;;;32.73;22.67;;;7.70;99.90;;;;;;6202288;23;20017;-36
2022/03/20 10:42:12;;;;;;;32.87;22.37;;;7.60;99.90;;;;;;6199626;23;20029;-32
2022/03/20 10:44:38;;;;;;;32.97;22.20;;;7.80;99.90;;;;;;6200448;23;20036;-35
2022/03/20 10:47:13;;;;;;;34.30;21.90;;;7.80;99.90;;;;;;6183139;23;20058;-35
2022/03/20 10:49:41;;;;;;;35.23;23.17;;;7.90;99.90;;;;;;6202474;23;20095;-36
2022/03/20 10:52:17;;;;;;;35.17;21.20;;;8.00;99.90;;;;;;6200640;23;20472;-33
2022/03/20 10:54:52;;;;;;;36.67;22.40;;;8.10;99.90;;;;;;6201733;23;20039;-36
2022/03/20 10:57:18;;;;;;;34.43;22.70;;;8.20;99.90;;;;;;6182405;23;20431;-35
2022/03/20 11:00:01;;;;;;;31.37;22.17;;;8.30;99.90;;;;;;6203410;23;20017;-35
2022/03/20 11:02:27;;;;;;;34.57;23.17;;;8.30;99.90;;;;;;6202705;23;20017;-35
2022/03/20 11:04:53;;;;;;;33.70;22.70;;;8.40;99.90;;;;;;6200919;23;20146;-36
2022/03/20 11:07:20;;;;;;;34.23;22.07;;;8.50;99.90;;;;;;6182977;23;20032;-35
2022/03/20 11:09:51;;;;;;;32.53;22.10;;;8.50;99.90;;;;;;6202873;23;20020;-35
2022/03/20 11:12:21;;;;;;;;;;;8.60;99.90;;;;;;6202732;23;20043;-36
2022/03/20 11:14:47;;;;;;;36.10;23.37;;;8.60;99.90;;;;;;6203338;23;20000;-35
2022/03/20 11:17:17;;;;;;;34.13;22.60;;;8.70;99.90;;;;;;6183136;23;20028;-34
2022/03/20 11:19:49;;;;;;;36.93;23.60;;;8.70;99.90;;;;;;6202974;23;20066;-36
2022/03/20 11:22:19;;;;;;;36.10;22.93;;;8.80;99.90;;;;;;6199016;23;20012;-36
2022/03/20 11:24:47;;;;;;;35.47;22.40;;;9.00;99.90;;;;;;6185883;23;20020;-36
2022/03/20 11:27:34;;;;;;;32.20;22.43;;;8.90;99.90;;;;;;6182027;23;20017;-35
2022/03/20 11:30:05;;;;;;;36.73;24.03;;;8.90;99.90;;;;;;6199203;23;20356;-35
2022/03/20 11:32:31;;;;;;;;;;;9.00;99.90;;;;;;6201738;23;20025;-34
2022/03/20 11:34:57;;;;;;;34.80;22.73;;;9.00;99.90;;;;;;6201373;23;20288;-36
2022/03/20 11:37:23;;;;;;;36.27;23.90;;;9.00;99.90;;;;;;6183010;23;20341;-36
2022/03/20 11:40:24;;;;;;;35.40;23.20;;;9.00;99.90;;;;;;6200044;23;20024;-33
2022/03/20 11:43:10;;;;;;;35.57;22.93;;;9.10;99.90;;;;;;6135421;23;20352;-36
2022/03/20 11:45:36;;;;;;;33.97;23.27;;;9.30;99.90;;;;;;6172733;23;20100;-37
2022/03/20 11:48:16;;;;;;;35.77;24.30;;;9.30;99.90;;;;;;6180491;23;20087;-35
2022/03/20 11:50:47;;;;;;;34.73;23.00;;;9.40;99.90;;;;;;6202432;23;20090;-36
2022/03/20 11:53:25;;;;;;;32.08;22.40;;;9.50;99.90;;;;;;6201369;23;20024;-37
2022/03/20 11:55:51;;;;;;;34.80;22.87;;;9.60;99.90;;;;;;6200860;23;20031;-35
2022/03/20 11:58:16;;;;;;;31.50;22.50;;;9.70;99.90;;;;;;6182810;23;20414;-36
2022/03/20 12:00:45;;;;;;;40.60;23.33;;;9.80;99.90;;;;;;6202876;23;20024;-35
2022/03/20 12:03:14;;;;;;;33.50;22.40;;;9.90;99.90;;;;;;6200062;23;20024;-36
2022/03/20 12:06:01;;;;;;;34.43;23.10;;;10.00;99.90;;;;;;6202887;23;20021;-35
2022/03/20 12:08:52;;;;;;;37.10;22.57;;;10.10;99.90;;;;;;6182215;23;20443;-33
2022/03/20 12:11:43;;;;;;;29.53;21.87;;;10.30;99.90;;;;;;6199925;23;20285;-34
2022/03/20 12:14:24;;;;;;;24.33;17.07;;;10.40;99.90;;;;;;6201641;23;20024;-34
2022/03/20 12:16:50;;;;;;;25.77;17.30;;;10.40;99.90;;;;;;6182230;23;20025;-37
2022/03/20 12:19:21;;;;;;;35.67;22.93;;;10.50;99.90;;;;;;6202078;23;20368;-36
2022/03/20 12:21:53;;;;;;;32.65;22.08;;;10.50;99.90;;;;;;6202632;23;20031;-34
2022/03/20 12:24:45;;;;;;;33.80;22.33;;;10.50;99.90;;;;;;6199416;23;20061;-35
2022/03/20 12:27:22;;;;;;;32.70;23.03;;;10.50;99.90;;;;;;6182473;23;20424;-36
2022/03/20 12:29:49;;;;;;;33.93;21.93;;;10.60;99.90;;;;;;6200345;23;20759;-36
2022/03/20 12:32:15;;;;;;;32.47;23.63;;;10.60;99.90;;;;;;6201693;23;20021;-37
2022/03/20 12:34:42;;;;;;;34.10;23.27;;;10.70;99.90;;;;;;6204029;23;20160;-37
2022/03/20 12:40:26;;;;;;;35.17;22.23;;;10.80;99.90;;;;;;6202988;23;20108;-36
2022/03/20 12:42:57;;;;;;;34.10;21.97;;;10.90;99.80;;;;;;6200804;23;20024;-34
2022/03/20 12:45:24;;;;;;;29.70;22.10;;;10.90;99.90;;;;;;6203903;23;20039;-36
2022/03/20 12:48:02;;;;;;;35.77;22.53;;;11.00;99.90;;;;;;6184495;23;20348;-36
2022/03/20 12:50:37;;;;;;;31.90;22.07;;;11.10;99.90;;;;;;6154828;23;20025;-34
2022/03/20 12:53:08;;;;;;;34.03;21.77;;;11.10;99.90;;;;;;6200846;23;20020;-36
2022/03/20 12:55:35;;;;;;;33.40;22.30;;;11.20;99.90;;;;;;6202912;23;20024;-35
2022/03/20 12:58:02;;;;;;;32.53;21.13;;;11.30;99.90;;;;;;6166674;23;20050;-36
2022/03/20 13:00:33;;;;;;;32.63;22.77;;;11.30;99.90;;;;;;6201310;23;20312;-35
2022/03/20 13:03:08;;;;;;;30.48;22.05;;;11.40;99.90;;;;;;6201426;23;20095;-36
2022/03/20 13:05:38;;;;;;;35.60;21.60;;;11.50;99.90;;;;;;6203487;23;20064;-36
2022/03/20 13:08:07;;;;;;;32.42;21.63;;;11.50;99.90;;;;;;6182722;23;20028;-34
2022/03/20 13:10:38;;;;;;;35.20;21.55;;;11.60;99.90;;;;;;6201830;23;20482;-35
2022/03/20 13:13:05;;;;;;;33.28;21.70;;;11.50;99.30;;;;;;6201053;23;20024;-36
2022/03/20 13:15:36;;;;;;;32.72;21.05;;;11.50;99.80;;;;;;6175981;23;20024;-34
2022/03/20 13:18:04;;;;;;;30.85;22.13;;;11.60;99.90;;;;;;6183739;23;20028;-36
2022/03/20 13:20:35;;;;;;;30.83;21.60;;;11.60;99.90;;;;;;6203589;23;20098;-36